Costa Mediterranea — IBCF — position and weather

sailwx.info

Track history (hours):
 
Tides and Currents Weather Stations Pressure Air Temp Water Temp Dewpoint Dewpoint Depression Visibility Wind Speed Wind Dir Waves Ship Positions

Costa Mediterranea

Last reported at 2019-Sep-21 23:30 UTC. Time now 2019-Sep-21 23:36 UTC.
Position N 53°32' E 004°52'.

Length 293 m; draft 8 m.

Type: Passenger vessel. MMSI: 247088200.

Date/timePositionNaut miles runAvg speedWind from/ knotsBaromVisibWave heightAir tempDewpointWater temp
2019-Sep-21 23:30N 53°32' E 004°52'917.7
2019-Sep-21 23:00N 53°35' E 005°05'917.6
2019-Sep-21 22:30N 53°38' E 005°19'917.7
2019-Sep-21 22:00N 53°41' E 005°34'917.5
2019-Sep-21 21:30N 53°44' E 005°48'917.7
2019-Sep-21 21:00N 53°47' E 006°02'918.3
2019-Sep-21 20:30N 53°50' E 006°16'918.7
2019-Sep-21 20:00N 53°52' E 006°32'918.9
2019-Sep-21 19:30N 53°54' E 006°47'919.0
2019-Sep-21 19:00N 53°56' E 007°03'919.0
2019-Sep-21 18:30N 53°57' E 007°19'1018.9
2019-Sep-21 17:59N 53°60' E 007°35'714.5
2019-Sep-21 17:30N 53°55' E 007°43'714.5
2019-Sep-21 17:00N 53°52' E 007°55'917.2
2019-Sep-21 16:30N 53°48' E 008°08'918.0
2019-Sep-21 16:00N 53°42' E 008°19'815.2
2019-Sep-21 15:30N 53°37' E 008°29'4 8.8
2019-Sep-21 15:00N 53°34' E 008°33'0 0.1
2019-Sep-21 14:29N 53°34' E 008°33'0 0.0
2019-Sep-21 13:59N 53°34' E 008°33'0 0.0
2019-Sep-21 13:29N 53°34' E 008°33'0 0.0
2019-Sep-21 12:59N 53°34' E 008°33'0 0.0
2019-Sep-21 12:29N 53°34' E 008°33'0 0.0
2019-Sep-21 11:59N 53°34' E 008°33'0 0.0
2019-Sep-21 11:29N 53°34' E 008°33'0 0.0
2019-Sep-21 10:59N 53°34' E 008°33'0 0.0
2019-Sep-21 10:29N 53°34' E 008°33'0 0.0
2019-Sep-21 09:59N 53°34' E 008°33'0 0.0
2019-Sep-21 09:29N 53°34' E 008°33'0 0.0
2019-Sep-21 08:59N 53°34' E 008°33'0 0.0
2019-Sep-21 08:29N 53°34' E 008°33'0 0.0
2019-Sep-21 07:59N 53°34' E 008°33'0 0.0
2019-Sep-21 07:29N 53°34' E 008°33'0 0.0
2019-Sep-21 06:59N 53°34' E 008°33'0 0.0
2019-Sep-21 06:29N 53°34' E 008°33'0 0.0
2019-Sep-21 05:59N 53°34' E 008°33'0 0.5
2019-Sep-21 05:30N 53°33' E 008°33'3 6.8
2019-Sep-21 05:00N 53°36' E 008°30'714.9
2019-Sep-21 04:30N 53°41' E 008°21'917.2
2019-Sep-21 04:00N 53°47' E 008°10'816.3
2019-Sep-21 03:31N 53°51' E 007°58'510.7
2019-Sep-21 03:00N 53°52' E 007°49'10 8.3
2019-Sep-21 01:49N 54°01' E 007°41'2 6.3
2019-Sep-21 01:31N 54°01' E 007°45'510.0
2019-Sep-21 01:01N 54°01' E 007°53'510.1
2019-Sep-21 00:30N 54°01' E 008°02'612.4
2019-Sep-21 00:01N 54°00' E 008°12'510.9
2019-Sep-20 23:31N 53°60' E 008°21'713.1
2019-Sep-20 23:01N 53°58' E 008°32'714.3
2019-Sep-20 22:30N 53°54' E 008°42'714.5
2019-Sep-20 22:00N 53°51' E 008°53'816.2
2019-Sep-20 21:30N 53°53' E 009°06'612.6
2019-Sep-20 21:00N 53°52' E 009°17'714.8
2019-Sep-20 20:30N 53°46' E 009°24'714.2
2019-Sep-20 20:00N 53°40' E 009°31'713.3
2019-Sep-20 19:30N 53°35' E 009°37'511.0
2019-Sep-20 19:01N 53°34' E 009°46'4 8.7
2019-Sep-20 18:31N 53°33' E 009°54'2 4.9
2019-Sep-20 18:01N 53°32' E 009°58'0 0.1
2019-Sep-20 17:30N 53°32' E 009°58'0 0.0
2019-Sep-20 17:00N 53°32' E 009°58'0 0.0
2019-Sep-20 16:30N 53°32' E 009°58'0 0.0
2019-Sep-20 16:00N 53°32' E 009°58'0 0.0
2019-Sep-20 15:30N 53°32' E 009°58'0 0.0
2019-Sep-20 15:00N 53°32' E 009°58'0 0.0
2019-Sep-20 14:30N 53°32' E 009°58'0 0.0
2019-Sep-20 14:00N 53°32' E 009°58'0 0.0
2019-Sep-20 13:30N 53°32' E 009°58'0 0.0
2019-Sep-20 13:00N 53°32' E 009°58'0 0.0
2019-Sep-20 12:30N 53°32' E 009°58'0 0.0
2019-Sep-20 12:00N 53°32' E 009°58'0 0.0
2019-Sep-20 11:30N 53°32' E 009°58'0 0.0
2019-Sep-20 11:00N 53°32' E 009°58'0 0.0
2019-Sep-20 10:30N 53°32' E 009°58'0 0.0
2019-Sep-20 10:00N 53°32' E 009°58'0 0.0
2019-Sep-20 09:30N 53°32' E 009°58'0 0.0
2019-Sep-20 09:00N 53°32' E 009°58'0 0.0
2019-Sep-20 08:30N 53°32' E 009°58'0 0.0
2019-Sep-20 08:00N 53°32' E 009°58'0 0.0
2019-Sep-20 07:30N 53°32' E 009°58'0 0.0
2019-Sep-20 07:00N 53°32' E 009°58'0 0.0
2019-Sep-20 06:30N 53°32' E 009°58'0 0.0
2019-Sep-20 06:00N 53°32' E 009°58'0 0.0
2019-Sep-20 05:30N 53°32' E 009°58'1 1.0
2019-Sep-20 05:00N 53°32' E 009°57'2 4.3
2019-Sep-20 04:30N 53°32' E 009°53'5 9.3
2019-Sep-20 04:00N 53°34' E 009°46'510.7
2019-Sep-20 03:30N 53°35' E 009°37'611.4
2019-Sep-20 03:00N 53°39' E 009°31'612.4
2019-Sep-20 02:30N 53°45' E 009°25'713.2
2019-Sep-20 02:00N 53°50' E 009°20'713.1
2019-Sep-20 01:30N 53°53' E 009°10'510.6
2019-Sep-20 01:00N 53°51' E 009°01'714.9
2019-Sep-20 00:31N 53°50' E 008°49'713.1
2019-Sep-20 00:00N 53°55' E 008°41'815.2
2019-Sep-19 23:30N 53°58' E 008°29'816.8
2019-Sep-19 23:00N 53°60' E 008°15'510.7
2019-Sep-19 22:31N 53°59' E 008°06'4 8.3
2019-Sep-19 22:01N 54°01' E 007°60'167 9.8
2019-Sep-19 05:00N 53°10' E 003°31'5212.0
2019-Sep-19 00:38N 52°23' E 002°53'611.2
2019-Sep-19 00:06N 52°18' E 002°48'111.2
2019-Sep-18 23:59N 52°17' E 002°47'811.0
2019-Sep-18 23:15N 52°09' E 002°42'511.0
2019-Sep-18 22:45N 52°04' E 002°42'3410.6
2019-Sep-18 19:30N 51°30' E 002°42'610.8
2019-Sep-18 18:57N 51°24' E 002°43'510.8
2019-Sep-18 18:30N 51°22' E 002°50'816.3
2019-Sep-18 18:00N 51°24' E 003°02'714.2
2019-Sep-18 17:31N 51°21' E 003°12'1 1.5
2019-Sep-18 16:58N 51°20' E 003°13'0 0.0
2019-Sep-18 16:28N 51°20' E 003°13'0 0.0
2019-Sep-18 15:58N 51°20' E 003°13'0 0.0
2019-Sep-18 15:25N 51°20' E 003°13'0 0.0
2019-Sep-18 14:58N 51°20' E 003°13'0 0.0
2019-Sep-18 14:28N 51°20' E 003°13'0 0.0
2019-Sep-18 13:58N 51°20' E 003°13'0 0.0
2019-Sep-18 13:25N 51°20' E 003°13'0 0.0
2019-Sep-18 12:58N 51°20' E 003°13'0 0.0
2019-Sep-18 12:28N 51°20' E 003°13'0 0.0
2019-Sep-18 11:58N 51°20' E 003°13'0 0.0
2019-Sep-18 11:28N 51°20' E 003°13'0 0.0
2019-Sep-18 10:58N 51°20' E 003°13'0 0.0
2019-Sep-18 10:29N 51°20' E 003°13'0 0.0
2019-Sep-18 09:58N 51°20' E 003°13'0 0.0
2019-Sep-18 09:28N 51°20' E 003°13'0 0.0
2019-Sep-18 08:58N 51°20' E 003°13'0 0.0
2019-Sep-18 08:28N 51°20' E 003°13'0 0.0
2019-Sep-18 07:55N 51°20' E 003°13'0 0.0
2019-Sep-18 07:28N 51°20' E 003°13'0 0.0
2019-Sep-18 07:00N 51°20' E 003°13'0 0.5
2019-Sep-18 06:30N 51°21' E 003°12'5 9.6
2019-Sep-18 06:00N 51°24' E 003°07'713.8
2019-Sep-18 05:28N 51°22' E 002°55'714.7
2019-Sep-18 04:58N 51°22' E 002°44'611.7
2019-Sep-18 04:30N 51°22' E 002°35'713.8
2019-Sep-18 04:01N 51°20' E 002°24'714.1
2019-Sep-18 03:30N 51°17' E 002°14'713.7
2019-Sep-18 03:01N 51°14' E 002°05'713.9
2019-Sep-18 02:31N 51°10' E 001°55'714.1
2019-Sep-18 02:00N 51°06' E 001°46'714.3
2019-Sep-18 01:30N 51°00' E 001°39'714.0
2019-Sep-18 01:00N 50°56' E 001°31'815.7
2019-Sep-18 00:30N 50°49' E 001°24'1515.1
2019-Sep-17 23:30N 50°36' E 001°11'815.2
2019-Sep-17 22:59N 50°31' E 001°03'2615.2
2019-Sep-17 21:17N 50°12' E 000°35'1314.6
2019-Sep-17 20:25N 50°02' E 000°21'614.0
2019-Sep-17 20:00N 49°58' E 000°15'713.6
2019-Sep-17 19:30N 49°53' E 000°09'713.1
2019-Sep-17 19:00N 49°48' E 000°03'713.0
2019-Sep-17 18:30N 49°42' W 000°03'613.0
2019-Sep-17 18:00N 49°36' W 000°04'612.9
2019-Sep-17 17:30N 49°30' E 000°01'4 7.7
2019-Sep-17 17:00N 49°29' E 000°07'0 0.0
2019-Sep-17 16:30N 49°29' E 000°07'0 0.0
2019-Sep-17 16:00N 49°29' E 000°07'0 0.0
2019-Sep-17 15:30N 49°29' E 000°07'0 0.0
2019-Sep-17 15:00N 49°29' E 000°07'0 0.0
2019-Sep-17 14:30N 49°29' E 000°07'0 0.0
2019-Sep-17 14:00N 49°29' E 000°07'0 0.0
2019-Sep-17 13:30N 49°29' E 000°07'0 0.0
2019-Sep-17 13:00N 49°29' E 000°07'0 0.0
2019-Sep-17 12:30N 49°29' E 000°07'0 0.0
2019-Sep-17 12:00N 49°29' E 000°07'0 0.0
2019-Sep-17 11:30N 49°29' E 000°07'0 0.0
2019-Sep-17 11:00N 49°29' E 000°07'0 0.0
2019-Sep-17 10:30N 49°29' E 000°07'0 0.0
2019-Sep-17 10:00N 49°29' E 000°07'0 0.0
2019-Sep-17 09:30N 49°29' E 000°07'0 0.0
2019-Sep-17 09:00N 49°29' E 000°07'0 0.0
2019-Sep-17 08:30N 49°29' E 000°07'0 0.0
2019-Sep-17 08:00N 49°29' E 000°07'0 0.0
2019-Sep-17 07:30N 49°29' E 000°07'0 0.0
2019-Sep-17 07:00N 49°29' E 000°07'0 0.0
2019-Sep-17 06:30N 49°29' E 000°07'0 0.0
2019-Sep-17 06:00N 49°29' E 000°07'0 0.1
2019-Sep-17 05:30N 49°29' E 000°07'2 4.5
2019-Sep-17 05:00N 49°29' E 000°04'612.8
2019-Sep-17 04:30N 49°31' W 000°06'5 9.6
2019-Sep-17 04:00N 49°35' W 000°11'713.3
2019-Sep-17 03:30N 49°41' W 000°10'713.2
2019-Sep-17 03:00N 49°48' W 000°09'713.0
2019-Sep-17 02:30N 49°55' W 000°08'613.0
2019-Sep-17 02:00N 50°01' W 000°07'713.2
2019-Sep-17 01:30N 50°08' W 000°06'713.4
2019-Sep-17 01:00N 50°14' W 000°05'913.4
2019-Sep-17 00:22N 50°23' W 000°03'2313.5
2019-Sep-16 22:40N 50°36' E 000°26'513.5
2019-Sep-16 22:17N 50°38' E 000°34'413.3
2019-Sep-16 22:00N 50°40' E 000°39'713.9
2019-Sep-16 21:30N 50°44' E 000°48'713.8
2019-Sep-16 21:00N 50°48' E 000°57'713.4
2019-Sep-16 20:30N 50°52' E 001°05'713.7
2019-Sep-16 20:00N 50°57' E 001°13'713.3
2019-Sep-16 19:31N 51°02' E 001°19'5 9.1
2019-Sep-16 19:00N 51°07' E 001°19'0 0.1
2019-Sep-16 18:29N 51°07' E 001°19'0 0.0
2019-Sep-16 17:59N 51°07' E 001°19'0 0.0
2019-Sep-16 17:17N 51°07' E 001°19'0 0.0
2019-Sep-16 16:53N 51°07' E 001°19'0 0.0
2019-Sep-16 16:29N 51°07' E 001°19'0 0.0
2019-Sep-16 15:53N 51°07' E 001°19'0 0.0
2019-Sep-16 15:29N 51°07' E 001°19'0 0.0
2019-Sep-16 14:53N 51°07' E 001°19'0 0.0
2019-Sep-16 14:29N 51°07' E 001°19'0 0.0
2019-Sep-16 13:59N 51°07' E 001°19'0 0.0
2019-Sep-16 13:29N 51°07' E 001°19'0 0.0
2019-Sep-16 12:53N 51°07' E 001°19'0 0.0
2019-Sep-16 12:29N 51°07' E 001°19'0 0.0
2019-Sep-16 11:53N 51°07' E 001°19'0 0.0
2019-Sep-16 11:23N 51°07' E 001°19'0 0.0
2019-Sep-16 10:59N 51°07' E 001°19'0 0.0
2019-Sep-16 10:29N 51°07' E 001°19'0 0.0
2019-Sep-16 09:59N 51°07' E 001°19'0 0.0
2019-Sep-16 09:29N 51°07' E 001°19'0 0.0
2019-Sep-16 08:59N 51°07' E 001°19'0 0.0
2019-Sep-16 08:29N 51°07' E 001°19'0 0.0
2019-Sep-16 07:59N 51°07' E 001°19'0 0.0
2019-Sep-16 07:29N 51°07' E 001°19'0 0.0
2019-Sep-16 06:59N 51°07' E 001°19'0 0.0
2019-Sep-16 06:31N 51°07' E 001°19'0 0.0
2019-Sep-16 06:01N 51°07' E 001°19'3 5.0
2019-Sep-16 05:27N 51°07' E 001°24'511.2
2019-Sep-16 05:00N 51°08' E 001°32'611.0
2019-Sep-16 04:30N 51°11' E 001°39'611.7
2019-Sep-16 04:00N 51°15' E 001°46'611.6
2019-Sep-16 03:30N 51°20' E 001°50'611.2
2019-Sep-16 03:00N 51°25' E 001°55'510.7
2019-Sep-16 02:30N 51°29' E 001°60'510.9
2019-Sep-16 02:00N 51°33' E 002°05'611.0
2019-Sep-16 01:30N 51°37' E 002°11'611.0
2019-Sep-16 01:00N 51°41' E 002°17'510.6
2019-Sep-16 00:30N 51°45' E 002°23'510.7
2019-Sep-16 00:00N 51°49' E 002°29'510.7
2019-Sep-15 23:30N 51°53' E 002°35'510.7
2019-Sep-15 23:00N 51°57' E 002°40'1010.9
2019-Sep-15 22:03N 52°05' E 002°52'110.9
2019-Sep-15 21:59N 52°06' E 002°52'1010.9
2019-Sep-15 21:05N 52°13' E 003°03'210.8
2019-Sep-15 20:54N 52°14' E 003°06'410.9
2019-Sep-15 20:30N 52°16' E 003°12'510.9
2019-Sep-15 20:00N 52°19' E 003°19'510.8
2019-Sep-15 19:30N 52°22' E 003°27'510.4
2019-Sep-15 19:00N 52°25' E 003°34'610.9
2019-Sep-15 18:30N 52°28' E 003°41'611.2
2019-Sep-15 18:00N 52°31' E 003°48'611.2
2019-Sep-15 17:30N 52°31' E 003°58'611.2
2019-Sep-15 17:00N 52°31' E 004°07'510.9
2019-Sep-15 16:30N 52°30' E 004°16'510.8
2019-Sep-15 16:00N 52°29' E 004°24'510.5
2019-Sep-15 15:31N 52°28' E 004°33'1 2.1
2019-Sep-15 15:00N 52°28' E 004°34'0 0.0
2019-Sep-15 14:30N 52°28' E 004°34'0 0.0
2019-Sep-15 14:00N 52°28' E 004°34'0 0.0
2019-Sep-15 13:30N 52°28' E 004°34'0 0.0
2019-Sep-15 13:00N 52°28' E 004°34'0 0.0
2019-Sep-15 12:30N 52°28' E 004°34'0 0.0
2019-Sep-15 12:00N 52°28' E 004°34'0 0.0
2019-Sep-15 11:30N 52°28' E 004°34'0 0.0
2019-Sep-15 11:00N 52°28' E 004°34'0 0.0
2019-Sep-15 10:30N 52°28' E 004°34'0 0.0
2019-Sep-15 10:00N 52°28' E 004°34'0 0.0
2019-Sep-15 09:30N 52°28' E 004°34'0 0.0
2019-Sep-15 09:00N 52°28' E 004°34'0 0.0
2019-Sep-15 08:30N 52°28' E 004°34'0 0.0
2019-Sep-15 08:00N 52°28' E 004°34'0 0.0
2019-Sep-15 07:30N 52°28' E 004°34'0 0.0
2019-Sep-15 07:00N 52°28' E 004°34'0 0.0
2019-Sep-15 06:30N 52°28' E 004°34'0 0.0
2019-Sep-15 06:00N 52°28' E 004°34'0 0.7
2019-Sep-15 05:31N 52°28' E 004°34'611.5
2019-Sep-15 05:00N 52°29' E 004°24'3 5.0
2019-Sep-15 04:30N 52°28' E 004°20'510.4
2019-Sep-15 04:01N 52°29' E 004°12'816.8
2019-Sep-15 03:31N 52°36' E 004°04'917.2
2019-Sep-15 03:01N 52°44' E 003°60'916.9
2019-Sep-15 02:30N 52°53' E 003°58'816.4
2019-Sep-15 02:01N 52°60' E 004°05'917.5
2019-Sep-15 01:31N 53°05' E 004°16'917.6
2019-Sep-15 01:01N 53°12' E 004°26'918.6
2019-Sep-15 00:31N 53°20' E 004°32'918.7
2019-Sep-15 00:01N 53°28' E 004°40'1019.4
2019-Sep-14 23:30N 53°32' E 004°55'919.1
2019-Sep-14 23:01N 53°36' E 005°09'1018.9
2019-Sep-14 22:30N 53°39' E 005°25'918.4
2019-Sep-14 22:00N 53°42' E 005°39'1018.1
2019-Sep-14 21:29N 53°45' E 005°55'918.0
2019-Sep-14 21:00N 53°48' E 006°08'917.9
2019-Sep-14 20:30N 53°50' E 006°23'1017.8
2019-Sep-14 19:55N 53°53' E 006°40'717.8
2019-Sep-14 19:31N 53°55' E 006°52'917.8
2019-Sep-14 19:00N 53°57' E 007°07'918.0
2019-Sep-14 18:30N 53°58' E 007°22'1117.4
2019-Sep-14 17:52N 53°58' E 007°41'617.9
2019-Sep-14 17:31N 53°53' E 007°47'714.6
2019-Sep-14 17:01N 53°51' E 007°59'917.3
2019-Sep-14 16:30N 53°46' E 008°10'918.6
2019-Sep-14 16:00N 53°40' E 008°23'715.1
2019-Sep-14 15:30N 53°35' E 008°32'2 3.0
2019-Sep-14 14:56N 53°34' E 008°33'0 0.0
2019-Sep-14 14:29N 53°34' E 008°33'0 0.0
2019-Sep-14 13:59N 53°34' E 008°33'0 0.0
2019-Sep-14 13:29N 53°34' E 008°33'0 0.0
2019-Sep-14 12:59N 53°34' E 008°33'0 0.0
2019-Sep-14 12:29N 53°34' E 008°33'0 0.0
2019-Sep-14 11:59N 53°34' E 008°33'0 0.0
2019-Sep-14 11:30N 53°34' E 008°33'0 0.0
2019-Sep-14 11:00N 53°34' E 008°33'0 0.0
2019-Sep-14 10:30N 53°34' E 008°33'0 0.0
2019-Sep-14 09:59N 53°34' E 008°33'0 0.0
2019-Sep-14 09:30N 53°34' E 008°33'0 0.0
2019-Sep-14 09:00N 53°34' E 008°33'0 0.0
2019-Sep-14 08:29N 53°34' E 008°33'0 0.0
2019-Sep-14 07:59N 53°34' E 008°33'0 0.0
2019-Sep-14 07:30N 53°34' E 008°33'0 0.1
2019-Sep-14 07:00N 53°34' E 008°33'1 2.6
2019-Sep-14 06:30N 53°35' E 008°32'511.0
2019-Sep-14 06:00N 53°39' E 008°25'714.3
2019-Sep-14 05:30N 53°43' E 008°16'713.8
2019-Sep-14 05:00N 53°48' E 008°08'714.0
2019-Sep-14 04:31N 53°51' E 007°57'611.6
2019-Sep-14 04:00N 53°53' E 007°48'1013.0
2019-Sep-14 03:16N 54°02' E 007°41'519.4
2019-Sep-14 03:00N 54°01' E 007°50'1019.5
2019-Sep-14 02:30N 54°01' E 008°06'815.5
2019-Sep-14 02:01N 53°60' E 008°19'1019.5
2019-Sep-14 01:31N 53°58' E 008°36'713.9
2019-Sep-14 01:00N 53°52' E 008°43'510.9
2019-Sep-14 00:30N 53°50' E 008°52'612.5
2019-Sep-14 00:00N 53°52' E 009°02'510.3
2019-Sep-13 23:30N 53°53' E 009°11'510.4
2019-Sep-13 23:00N 53°51' E 009°19'612.0
2019-Sep-13 22:30N 53°46' E 009°24'611.6
2019-Sep-13 22:00N 53°41' E 009°30'713.1
2019-Sep-13 21:31N 53°36' E 009°36'611.1
2019-Sep-13 21:00N 53°34' E 009°45'510.8
2019-Sep-13 20:30N 53°33' E 009°54'3 5.4
2019-Sep-13 20:00N 53°33' E 009°58'0 0.0
2019-Sep-13 19:30N 53°33' E 009°58'0 0.6
2019-Sep-13 19:00N 53°33' E 009°58'1 1.1
2019-Sep-13 18:30N 53°32' E 009°57'1 1.2
2019-Sep-13 18:00N 53°32' E 009°58'0 0.0
2019-Sep-13 17:30N 53°32' E 009°58'0 0.0
2019-Sep-13 17:00N 53°32' E 009°58'0 0.0
2019-Sep-13 16:30N 53°32' E 009°58'0 0.0
2019-Sep-13 16:00N 53°32' E 009°58'0 0.0
2019-Sep-13 15:30N 53°32' E 009°58'0 0.0
2019-Sep-13 14:57N 53°32' E 009°58'0 0.0
2019-Sep-13 14:30N 53°32' E 009°58'0 0.0
2019-Sep-13 14:00N 53°32' E 009°58'0 0.0
2019-Sep-13 13:30N 53°32' E 009°58'0 0.0
2019-Sep-13 13:00N 53°32' E 009°58'0 0.0
2019-Sep-13 12:30N 53°32' E 009°58'0 0.0
2019-Sep-13 12:00N 53°32' E 009°58'0 0.0
2019-Sep-13 11:30N 53°32' E 009°58'0 0.0
2019-Sep-13 11:00N 53°32' E 009°58'0 0.0
2019-Sep-13 10:30N 53°32' E 009°58'0 0.0
2019-Sep-13 10:00N 53°32' E 009°58'0 0.0
2019-Sep-13 09:30N 53°32' E 009°58'0 0.0
2019-Sep-13 09:00N 53°32' E 009°58'0 0.0
2019-Sep-13 08:30N 53°32' E 009°58'0 0.0
2019-Sep-13 08:00N 53°32' E 009°58'0 0.0
2019-Sep-13 07:30N 53°32' E 009°58'0 0.0
2019-Sep-13 07:00N 53°32' E 009°58'0 0.0
2019-Sep-13 06:30N 53°32' E 009°58'0 0.0
2019-Sep-13 06:00N 53°32' E 009°58'0 0.0
2019-Sep-13 05:27N 53°32' E 009°58'0 0.8
2019-Sep-13 05:00N 53°32' E 009°57'2 3.0
2019-Sep-13 04:30N 53°32' E 009°55'4 8.3
2019-Sep-13 04:00N 53°33' E 009°48'4 7.6
2019-Sep-13 03:30N 53°34' E 009°42'611.2
2019-Sep-13 03:00N 53°37' E 009°34'1313.1
2019-Sep-13 02:00N 53°48' E 009°22'714.1
2019-Sep-13 01:30N 53°53' E 009°13'5 9.3
2019-Sep-13 01:00N 53°52' E 009°05'510.7
2019-Sep-13 00:30N 53°51' E 008°57'612.4
2019-Sep-13 00:01N 53°51' E 008°46'5 9.8
2019-Sep-12 23:30N 53°55' E 008°41'612.3
2019-Sep-12 23:00N 53°58' E 008°33'714.0
2019-Sep-12 22:31N 53°59' E 008°21'612.7
2019-Sep-12 22:01N 53°60' E 008°10'510.1
2019-Sep-12 21:31N 54°00' E 008°01'5 9.9
2019-Sep-12 21:01N 54°03' E 007°54'6 9.5
2019-Sep-12 20:22N 54°06' E 007°45'14910.7
2019-Sep-12 06:23N 53°25' E 003°42'612.7
2019-Sep-12 05:56N 53°20' E 003°38'811.2
2019-Sep-12 05:14N 53°13' E 003°32'510.9
2019-Sep-12 04:46N 53°08' E 003°29'310.8
2019-Sep-12 04:30N 53°05' E 003°27'510.6
2019-Sep-12 04:00N 53°00' E 003°24'510.8
2019-Sep-12 03:30N 52°55' E 003°21'510.9
2019-Sep-12 03:00N 52°50' E 003°17'611.1
2019-Sep-12 02:30N 52°45' E 003°13'611.3
2019-Sep-12 02:00N 52°41' E 003°08'911.3
2019-Sep-12 01:14N 52°33' E 003°02'311.3
2019-Sep-12 00:57N 52°30' E 002°59'612.2
2019-Sep-12 00:30N 52°25' E 002°55'612.6
2019-Sep-12 00:00N 52°19' E 002°50'  
Track history (hours):
 
Tides and Currents Weather Stations Pressure Air Temp Water Temp Dewpoint Dewpoint Depression Visibility Wind Speed Wind Dir Waves Ship Positions

Costa Mediterranea

Last reported at 2019-Sep-21 23:30 UTC. Time now 2019-Sep-21 23:36 UTC.
Position N 53°32' E 004°52'.

Length 293 m; draft 8 m.

Type: Passenger vessel. MMSI: 247088200.

Date/timePositionNaut miles runAvg speedWind from/ knotsBaromVisibWave heightAir tempDewpointWater temp
2019-Sep-21 23:30N 53°32' E 004°52'917.7
2019-Sep-21 23:00N 53°35' E 005°05'917.6
2019-Sep-21 22:30N 53°38' E 005°19'917.7
2019-Sep-21 22:00N 53°41' E 005°34'917.5
2019-Sep-21 21:30N 53°44' E 005°48'917.7
2019-Sep-21 21:00N 53°47' E 006°02'918.3
2019-Sep-21 20:30N 53°50' E 006°16'918.7
2019-Sep-21 20:00N 53°52' E 006°32'918.9
2019-Sep-21 19:30N 53°54' E 006°47'919.0
2019-Sep-21 19:00N 53°56' E 007°03'919.0
2019-Sep-21 18:30N 53°57' E 007°19'1018.9
2019-Sep-21 17:59N 53°60' E 007°35'714.5
2019-Sep-21 17:30N 53°55' E 007°43'714.5
2019-Sep-21 17:00N 53°52' E 007°55'917.2
2019-Sep-21 16:30N 53°48' E 008°08'918.0
2019-Sep-21 16:00N 53°42' E 008°19'815.2
2019-Sep-21 15:30N 53°37' E 008°29'4 8.8
2019-Sep-21 15:00N 53°34' E 008°33'0 0.1
2019-Sep-21 14:29N 53°34' E 008°33'0 0.0
2019-Sep-21 13:59N 53°34' E 008°33'0 0.0
2019-Sep-21 13:29N 53°34' E 008°33'0 0.0
2019-Sep-21 12:59N 53°34' E 008°33'0 0.0
2019-Sep-21 12:29N 53°34' E 008°33'0 0.0
2019-Sep-21 11:59N 53°34' E 008°33'0 0.0
2019-Sep-21 11:29N 53°34' E 008°33'0 0.0
2019-Sep-21 10:59N 53°34' E 008°33'0 0.0
2019-Sep-21 10:29N 53°34' E 008°33'0 0.0
2019-Sep-21 09:59N 53°34' E 008°33'0 0.0
2019-Sep-21 09:29N 53°34' E 008°33'0 0.0
2019-Sep-21 08:59N 53°34' E 008°33'0 0.0
2019-Sep-21 08:29N 53°34' E 008°33'0 0.0
2019-Sep-21 07:59N 53°34' E 008°33'0 0.0
2019-Sep-21 07:29N 53°34' E 008°33'0 0.0
2019-Sep-21 06:59N 53°34' E 008°33'0 0.0
2019-Sep-21 06:29N 53°34' E 008°33'0 0.0
2019-Sep-21 05:59N 53°34' E 008°33'0 0.5
2019-Sep-21 05:30N 53°33' E 008°33'3 6.8
2019-Sep-21 05:00N 53°36' E 008°30'714.9
2019-Sep-21 04:30N 53°41' E 008°21'917.2
2019-Sep-21 04:00N 53°47' E 008°10'816.3
2019-Sep-21 03:31N 53°51' E 007°58'510.7
2019-Sep-21 03:00N 53°52' E 007°49'10 8.3
2019-Sep-21 01:49N 54°01' E 007°41'2 6.3
2019-Sep-21 01:31N 54°01' E 007°45'510.0
2019-Sep-21 01:01N 54°01' E 007°53'510.1
2019-Sep-21 00:30N 54°01' E 008°02'612.4
2019-Sep-21 00:01N 54°00' E 008°12'510.9
2019-Sep-20 23:31N 53°60' E 008°21'713.1
2019-Sep-20 23:01N 53°58' E 008°32'714.3
2019-Sep-20 22:30N 53°54' E 008°42'714.5
2019-Sep-20 22:00N 53°51' E 008°53'816.2
2019-Sep-20 21:30N 53°53' E 009°06'612.6
2019-Sep-20 21:00N 53°52' E 009°17'714.8
2019-Sep-20 20:30N 53°46' E 009°24'714.2
2019-Sep-20 20:00N 53°40' E 009°31'713.3
2019-Sep-20 19:30N 53°35' E 009°37'511.0
2019-Sep-20 19:01N 53°34' E 009°46'4 8.7
2019-Sep-20 18:31N 53°33' E 009°54'2 4.9
2019-Sep-20 18:01N 53°32' E 009°58'0 0.1
2019-Sep-20 17:30N 53°32' E 009°58'0 0.0
2019-Sep-20 17:00N 53°32' E 009°58'0 0.0
2019-Sep-20 16:30N 53°32' E 009°58'0 0.0
2019-Sep-20 16:00N 53°32' E 009°58'0 0.0
2019-Sep-20 15:30N 53°32' E 009°58'0 0.0
2019-Sep-20 15:00N 53°32' E 009°58'0 0.0
2019-Sep-20 14:30N 53°32' E 009°58'0 0.0
2019-Sep-20 14:00N 53°32' E 009°58'0 0.0
2019-Sep-20 13:30N 53°32' E 009°58'0 0.0
2019-Sep-20 13:00N 53°32' E 009°58'0 0.0
2019-Sep-20 12:30N 53°32' E 009°58'0 0.0
2019-Sep-20 12:00N 53°32' E 009°58'0 0.0
2019-Sep-20 11:30N 53°32' E 009°58'0 0.0
2019-Sep-20 11:00N 53°32' E 009°58'0 0.0
2019-Sep-20 10:30N 53°32' E 009°58'0 0.0
2019-Sep-20 10:00N 53°32' E 009°58'0 0.0
2019-Sep-20 09:30N 53°32' E 009°58'0 0.0
2019-Sep-20 09:00N 53°32' E 009°58'0 0.0
2019-Sep-20 08:30N 53°32' E 009°58'0 0.0
2019-Sep-20 08:00N 53°32' E 009°58'0 0.0
2019-Sep-20 07:30N 53°32' E 009°58'0 0.0
2019-Sep-20 07:00N 53°32' E 009°58'0 0.0
2019-Sep-20 06:30N 53°32' E 009°58'0 0.0
2019-Sep-20 06:00N 53°32' E 009°58'0 0.0
2019-Sep-20 05:30N 53°32' E 009°58'1 1.0
2019-Sep-20 05:00N 53°32' E 009°57'2 4.3
2019-Sep-20 04:30N 53°32' E 009°53'5 9.3
2019-Sep-20 04:00N 53°34' E 009°46'510.7
2019-Sep-20 03:30N 53°35' E 009°37'611.4
2019-Sep-20 03:00N 53°39' E 009°31'612.4
2019-Sep-20 02:30N 53°45' E 009°25'713.2
2019-Sep-20 02:00N 53°50' E 009°20'713.1
2019-Sep-20 01:30N 53°53' E 009°10'510.6
2019-Sep-20 01:00N 53°51' E 009°01'714.9
2019-Sep-20 00:31N 53°50' E 008°49'713.1
2019-Sep-20 00:00N 53°55' E 008°41'815.2
2019-Sep-19 23:30N 53°58' E 008°29'816.8
2019-Sep-19 23:00N 53°60' E 008°15'510.7
2019-Sep-19 22:31N 53°59' E 008°06'4 8.3
2019-Sep-19 22:01N 54°01' E 007°60'167 9.8
2019-Sep-19 05:00N 53°10' E 003°31'5212.0
2019-Sep-19 00:38N 52°23' E 002°53'611.2
2019-Sep-19 00:06N 52°18' E 002°48'111.2
2019-Sep-18 23:59N 52°17' E 002°47'811.0
2019-Sep-18 23:15N 52°09' E 002°42'511.0
2019-Sep-18 22:45N 52°04' E 002°42'3410.6
2019-Sep-18 19:30N 51°30' E 002°42'610.8
2019-Sep-18 18:57N 51°24' E 002°43'510.8
2019-Sep-18 18:30N 51°22' E 002°50'816.3
2019-Sep-18 18:00N 51°24' E 003°02'714.2
2019-Sep-18 17:31N 51°21' E 003°12'1 1.5
2019-Sep-18 16:58N 51°20' E 003°13'0 0.0
2019-Sep-18 16:28N 51°20' E 003°13'0 0.0
2019-Sep-18 15:58N 51°20' E 003°13'0 0.0
2019-Sep-18 15:25N 51°20' E 003°13'0 0.0
2019-Sep-18 14:58N 51°20' E 003°13'0 0.0
2019-Sep-18 14:28N 51°20' E 003°13'0 0.0
2019-Sep-18 13:58N 51°20' E 003°13'0 0.0
2019-Sep-18 13:25N 51°20' E 003°13'0 0.0
2019-Sep-18 12:58N 51°20' E 003°13'0 0.0
2019-Sep-18 12:28N 51°20' E 003°13'0 0.0
2019-Sep-18 11:58N 51°20' E 003°13'0 0.0
2019-Sep-18 11:28N 51°20' E 003°13'0 0.0
2019-Sep-18 10:58N 51°20' E 003°13'0 0.0
2019-Sep-18 10:29N 51°20' E 003°13'0 0.0
2019-Sep-18 09:58N 51°20' E 003°13'0 0.0
2019-Sep-18 09:28N 51°20' E 003°13'0 0.0
2019-Sep-18 08:58N 51°20' E 003°13'0 0.0
2019-Sep-18 08:28N 51°20' E 003°13'0 0.0
2019-Sep-18 07:55N 51°20' E 003°13'0 0.0
2019-Sep-18 07:28N 51°20' E 003°13'0 0.0
2019-Sep-18 07:00N 51°20' E 003°13'0 0.5
2019-Sep-18 06:30N 51°21' E 003°12'5 9.6
2019-Sep-18 06:00N 51°24' E 003°07'713.8
2019-Sep-18 05:28N 51°22' E 002°55'714.7
2019-Sep-18 04:58N 51°22' E 002°44'611.7
2019-Sep-18 04:30N 51°22' E 002°35'713.8
2019-Sep-18 04:01N 51°20' E 002°24'714.1
2019-Sep-18 03:30N 51°17' E 002°14'713.7
2019-Sep-18 03:01N 51°14' E 002°05'713.9
2019-Sep-18 02:31N 51°10' E 001°55'714.1
2019-Sep-18 02:00N 51°06' E 001°46'714.3
2019-Sep-18 01:30N 51°00' E 001°39'714.0
2019-Sep-18 01:00N 50°56' E 001°31'815.7
2019-Sep-18 00:30N 50°49' E 001°24'1515.1
2019-Sep-17 23:30N 50°36' E 001°11'815.2
2019-Sep-17 22:59N 50°31' E 001°03'2615.2
2019-Sep-17 21:17N 50°12' E 000°35'1314.6
2019-Sep-17 20:25N 50°02' E 000°21'614.0
2019-Sep-17 20:00N 49°58' E 000°15'713.6
2019-Sep-17 19:30N 49°53' E 000°09'713.1
2019-Sep-17 19:00N 49°48' E 000°03'713.0
2019-Sep-17 18:30N 49°42' W 000°03'613.0
2019-Sep-17 18:00N 49°36' W 000°04'612.9
2019-Sep-17 17:30N 49°30' E 000°01'4 7.7
2019-Sep-17 17:00N 49°29' E 000°07'0 0.0
2019-Sep-17 16:30N 49°29' E 000°07'0 0.0
2019-Sep-17 16:00N 49°29' E 000°07'0 0.0
2019-Sep-17 15:30N 49°29' E 000°07'0 0.0
2019-Sep-17 15:00N 49°29' E 000°07'0 0.0
2019-Sep-17 14:30N 49°29' E 000°07'0 0.0
2019-Sep-17 14:00N 49°29' E 000°07'0 0.0
2019-Sep-17 13:30N 49°29' E 000°07'0 0.0
2019-Sep-17 13:00N 49°29' E 000°07'0 0.0
2019-Sep-17 12:30N 49°29' E 000°07'0 0.0
2019-Sep-17 12:00N 49°29' E 000°07'0 0.0
2019-Sep-17 11:30N 49°29' E 000°07'0 0.0
2019-Sep-17 11:00N 49°29' E 000°07'0 0.0
2019-Sep-17 10:30N 49°29' E 000°07'0 0.0
2019-Sep-17 10:00N 49°29' E 000°07'0 0.0
2019-Sep-17 09:30N 49°29' E 000°07'0 0.0
2019-Sep-17 09:00N 49°29' E 000°07'0 0.0
2019-Sep-17 08:30N 49°29' E 000°07'0 0.0
2019-Sep-17 08:00N 49°29' E 000°07'0 0.0
2019-Sep-17 07:30N 49°29' E 000°07'0 0.0
2019-Sep-17 07:00N 49°29' E 000°07'0 0.0
2019-Sep-17 06:30N 49°29' E 000°07'0 0.0
2019-Sep-17 06:00N 49°29' E 000°07'0 0.1
2019-Sep-17 05:30N 49°29' E 000°07'2 4.5
2019-Sep-17 05:00N 49°29' E 000°04'612.8
2019-Sep-17 04:30N 49°31' W 000°06'5 9.6
2019-Sep-17 04:00N 49°35' W 000°11'713.3
2019-Sep-17 03:30N 49°41' W 000°10'713.2
2019-Sep-17 03:00N 49°48' W 000°09'713.0
2019-Sep-17 02:30N 49°55' W 000°08'613.0
2019-Sep-17 02:00N 50°01' W 000°07'713.2
2019-Sep-17 01:30N 50°08' W 000°06'713.4
2019-Sep-17 01:00N 50°14' W 000°05'913.4
2019-Sep-17 00:22N 50°23' W 000°03'2313.5
2019-Sep-16 22:40N 50°36' E 000°26'513.5
2019-Sep-16 22:17N 50°38' E 000°34'413.3
2019-Sep-16 22:00N 50°40' E 000°39'713.9
2019-Sep-16 21:30N 50°44' E 000°48'713.8
2019-Sep-16 21:00N 50°48' E 000°57'713.4
2019-Sep-16 20:30N 50°52' E 001°05'713.7
2019-Sep-16 20:00N 50°57' E 001°13'713.3
2019-Sep-16 19:31N 51°02' E 001°19'5 9.1
2019-Sep-16 19:00N 51°07' E 001°19'0 0.1
2019-Sep-16 18:29N 51°07' E 001°19'0 0.0
2019-Sep-16 17:59N 51°07' E 001°19'0 0.0
2019-Sep-16 17:17N 51°07' E 001°19'0 0.0
2019-Sep-16 16:53N 51°07' E 001°19'0 0.0
2019-Sep-16 16:29N 51°07' E 001°19'0 0.0
2019-Sep-16 15:53N 51°07' E 001°19'0 0.0
2019-Sep-16 15:29N 51°07' E 001°19'0 0.0
2019-Sep-16 14:53N 51°07' E 001°19'0 0.0
2019-Sep-16 14:29N 51°07' E 001°19'0 0.0
2019-Sep-16 13:59N 51°07' E 001°19'0 0.0
2019-Sep-16 13:29N 51°07' E 001°19'0 0.0
2019-Sep-16 12:53N 51°07' E 001°19'0 0.0
2019-Sep-16 12:29N 51°07' E 001°19'0 0.0
2019-Sep-16 11:53N 51°07' E 001°19'0 0.0
2019-Sep-16 11:23N 51°07' E 001°19'0 0.0
2019-Sep-16 10:59N 51°07' E 001°19'0 0.0
2019-Sep-16 10:29N 51°07' E 001°19'0 0.0
2019-Sep-16 09:59N 51°07' E 001°19'0 0.0
2019-Sep-16 09:29N 51°07' E 001°19'0 0.0
2019-Sep-16 08:59N 51°07' E 001°19'0 0.0
2019-Sep-16 08:29N 51°07' E 001°19'0 0.0
2019-Sep-16 07:59N 51°07' E 001°19'0 0.0
2019-Sep-16 07:29N 51°07' E 001°19'0 0.0
2019-Sep-16 06:59N 51°07' E 001°19'0 0.0
2019-Sep-16 06:31N 51°07' E 001°19'0 0.0
2019-Sep-16 06:01N 51°07' E 001°19'3 5.0
2019-Sep-16 05:27N 51°07' E 001°24'511.2
2019-Sep-16 05:00N 51°08' E 001°32'611.0
2019-Sep-16 04:30N 51°11' E 001°39'611.7
2019-Sep-16 04:00N 51°15' E 001°46'611.6
2019-Sep-16 03:30N 51°20' E 001°50'611.2
2019-Sep-16 03:00N 51°25' E 001°55'510.7
2019-Sep-16 02:30N 51°29' E 001°60'510.9
2019-Sep-16 02:00N 51°33' E 002°05'611.0
2019-Sep-16 01:30N 51°37' E 002°11'611.0
2019-Sep-16 01:00N 51°41' E 002°17'510.6
2019-Sep-16 00:30N 51°45' E 002°23'510.7
2019-Sep-16 00:00N 51°49' E 002°29'510.7
2019-Sep-15 23:30N 51°53' E 002°35'510.7
2019-Sep-15 23:00N 51°57' E 002°40'1010.9
2019-Sep-15 22:03N 52°05' E 002°52'110.9
2019-Sep-15 21:59N 52°06' E 002°52'1010.9
2019-Sep-15 21:05N 52°13' E 003°03'210.8
2019-Sep-15 20:54N 52°14' E 003°06'410.9
2019-Sep-15 20:30N 52°16' E 003°12'510.9
2019-Sep-15 20:00N 52°19' E 003°19'510.8
2019-Sep-15 19:30N 52°22' E 003°27'510.4
2019-Sep-15 19:00N 52°25' E 003°34'610.9
2019-Sep-15 18:30N 52°28' E 003°41'611.2
2019-Sep-15 18:00N 52°31' E 003°48'611.2
2019-Sep-15 17:30N 52°31' E 003°58'611.2
2019-Sep-15 17:00N 52°31' E 004°07'510.9
2019-Sep-15 16:30N 52°30' E 004°16'510.8
2019-Sep-15 16:00N 52°29' E 004°24'510.5
2019-Sep-15 15:31N 52°28' E 004°33'1 2.1
2019-Sep-15 15:00N 52°28' E 004°34'0 0.0
2019-Sep-15 14:30N 52°28' E 004°34'0 0.0
2019-Sep-15 14:00N 52°28' E 004°34'0 0.0
2019-Sep-15 13:30N 52°28' E 004°34'0 0.0
2019-Sep-15 13:00N 52°28' E 004°34'0 0.0
2019-Sep-15 12:30N 52°28' E 004°34'0 0.0
2019-Sep-15 12:00N 52°28' E 004°34'0 0.0
2019-Sep-15 11:30N 52°28' E 004°34'0 0.0
2019-Sep-15 11:00N 52°28' E 004°34'0 0.0
2019-Sep-15 10:30N 52°28' E 004°34'0 0.0
2019-Sep-15 10:00N 52°28' E 004°34'0 0.0
2019-Sep-15 09:30N 52°28' E 004°34'0 0.0
2019-Sep-15 09:00N 52°28' E 004°34'0 0.0
2019-Sep-15 08:30N 52°28' E 004°34'0 0.0
2019-Sep-15 08:00N 52°28' E 004°34'0 0.0
2019-Sep-15 07:30N 52°28' E 004°34'0 0.0
2019-Sep-15 07:00N 52°28' E 004°34'0 0.0
2019-Sep-15 06:30N 52°28' E 004°34'0 0.0
2019-Sep-15 06:00N 52°28' E 004°34'0 0.7
2019-Sep-15 05:31N 52°28' E 004°34'611.5
2019-Sep-15 05:00N 52°29' E 004°24'3 5.0
2019-Sep-15 04:30N 52°28' E 004°20'510.4
2019-Sep-15 04:01N 52°29' E 004°12'816.8
2019-Sep-15 03:31N 52°36' E 004°04'917.2
2019-Sep-15 03:01N 52°44' E 003°60'916.9
2019-Sep-15 02:30N 52°53' E 003°58'816.4
2019-Sep-15 02:01N 52°60' E 004°05'917.5
2019-Sep-15 01:31N 53°05' E 004°16'917.6
2019-Sep-15 01:01N 53°12' E 004°26'918.6
2019-Sep-15 00:31N 53°20' E 004°32'918.7
2019-Sep-15 00:01N 53°28' E 004°40'1019.4
2019-Sep-14 23:30N 53°32' E 004°55'919.1
2019-Sep-14 23:01N 53°36' E 005°09'1018.9
2019-Sep-14 22:30N 53°39' E 005°25'918.4
2019-Sep-14 22:00N 53°42' E 005°39'1018.1
2019-Sep-14 21:29N 53°45' E 005°55'918.0
2019-Sep-14 21:00N 53°48' E 006°08'917.9
2019-Sep-14 20:30N 53°50' E 006°23'1017.8
2019-Sep-14 19:55N 53°53' E 006°40'717.8
2019-Sep-14 19:31N 53°55' E 006°52'917.8
2019-Sep-14 19:00N 53°57' E 007°07'918.0
2019-Sep-14 18:30N 53°58' E 007°22'1117.4
2019-Sep-14 17:52N 53°58' E 007°41'617.9
2019-Sep-14 17:31N 53°53' E 007°47'714.6
2019-Sep-14 17:01N 53°51' E 007°59'917.3
2019-Sep-14 16:30N 53°46' E 008°10'918.6
2019-Sep-14 16:00N 53°40' E 008°23'715.1
2019-Sep-14 15:30N 53°35' E 008°32'2 3.0
2019-Sep-14 14:56N 53°34' E 008°33'0 0.0
2019-Sep-14 14:29N 53°34' E 008°33'0 0.0
2019-Sep-14 13:59N 53°34' E 008°33'0 0.0
2019-Sep-14 13:29N 53°34' E 008°33'0 0.0
2019-Sep-14 12:59N 53°34' E 008°33'0 0.0
2019-Sep-14 12:29N 53°34' E 008°33'0 0.0
2019-Sep-14 11:59N 53°34' E 008°33'0 0.0
2019-Sep-14 11:30N 53°34' E 008°33'0 0.0
2019-Sep-14 11:00N 53°34' E 008°33'0 0.0
2019-Sep-14 10:30N 53°34' E 008°33'0 0.0
2019-Sep-14 09:59N 53°34' E 008°33'0 0.0
2019-Sep-14 09:30N 53°34' E 008°33'0 0.0
2019-Sep-14 09:00N 53°34' E 008°33'0 0.0
2019-Sep-14 08:29N 53°34' E 008°33'0 0.0
2019-Sep-14 07:59N 53°34' E 008°33'0 0.0
2019-Sep-14 07:30N 53°34' E 008°33'0 0.1
2019-Sep-14 07:00N 53°34' E 008°33'1 2.6
2019-Sep-14 06:30N 53°35' E 008°32'511.0
2019-Sep-14 06:00N 53°39' E 008°25'714.3
2019-Sep-14 05:30N 53°43' E 008°16'713.8
2019-Sep-14 05:00N 53°48' E 008°08'714.0
2019-Sep-14 04:31N 53°51' E 007°57'611.6
2019-Sep-14 04:00N 53°53' E 007°48'1013.0
2019-Sep-14 03:16N 54°02' E 007°41'519.4
2019-Sep-14 03:00N 54°01' E 007°50'1019.5
2019-Sep-14 02:30N 54°01' E 008°06'815.5
2019-Sep-14 02:01N 53°60' E 008°19'1019.5
2019-Sep-14 01:31N 53°58' E 008°36'713.9
2019-Sep-14 01:00N 53°52' E 008°43'510.9
2019-Sep-14 00:30N 53°50' E 008°52'612.5
2019-Sep-14 00:00N 53°52' E 009°02'510.3
2019-Sep-13 23:30N 53°53' E 009°11'510.4
2019-Sep-13 23:00N 53°51' E 009°19'612.0
2019-Sep-13 22:30N 53°46' E 009°24'611.6
2019-Sep-13 22:00N 53°41' E 009°30'713.1
2019-Sep-13 21:31N 53°36' E 009°36'611.1
2019-Sep-13 21:00N 53°34' E 009°45'510.8
2019-Sep-13 20:30N 53°33' E 009°54'3 5.4
2019-Sep-13 20:00N 53°33' E 009°58'0 0.0
2019-Sep-13 19:30N 53°33' E 009°58'0 0.6
2019-Sep-13 19:00N 53°33' E 009°58'1 1.1
2019-Sep-13 18:30N 53°32' E 009°57'1 1.2
2019-Sep-13 18:00N 53°32' E 009°58'0 0.0
2019-Sep-13 17:30N 53°32' E 009°58'0 0.0
2019-Sep-13 17:00N 53°32' E 009°58'0 0.0
2019-Sep-13 16:30N 53°32' E 009°58'0 0.0
2019-Sep-13 16:00N 53°32' E 009°58'0 0.0
2019-Sep-13 15:30N 53°32' E 009°58'0 0.0
2019-Sep-13 14:57N 53°32' E 009°58'0 0.0
2019-Sep-13 14:30N 53°32' E 009°58'0 0.0
2019-Sep-13 14:00N 53°32' E 009°58'0 0.0
2019-Sep-13 13:30N 53°32' E 009°58'0 0.0
2019-Sep-13 13:00N 53°32' E 009°58'0 0.0
2019-Sep-13 12:30N 53°32' E 009°58'0 0.0
2019-Sep-13 12:00N 53°32' E 009°58'0 0.0
2019-Sep-13 11:30N 53°32' E 009°58'0 0.0
2019-Sep-13 11:00N 53°32' E 009°58'0 0.0
2019-Sep-13 10:30N 53°32' E 009°58'0 0.0
2019-Sep-13 10:00N 53°32' E 009°58'0 0.0
2019-Sep-13 09:30N 53°32' E 009°58'0 0.0
2019-Sep-13 09:00N 53°32' E 009°58'0 0.0
2019-Sep-13 08:30N 53°32' E 009°58'0 0.0
2019-Sep-13 08:00N 53°32' E 009°58'0 0.0
2019-Sep-13 07:30N 53°32' E 009°58'0 0.0
2019-Sep-13 07:00N 53°32' E 009°58'0 0.0
2019-Sep-13 06:30N 53°32' E 009°58'0 0.0
2019-Sep-13 06:00N 53°32' E 009°58'0 0.0
2019-Sep-13 05:27N 53°32' E 009°58'0 0.8
2019-Sep-13 05:00N 53°32' E 009°57'2 3.0
2019-Sep-13 04:30N 53°32' E 009°55'4 8.3
2019-Sep-13 04:00N 53°33' E 009°48'4 7.6
2019-Sep-13 03:30N 53°34' E 009°42'611.2
2019-Sep-13 03:00N 53°37' E 009°34'1313.1
2019-Sep-13 02:00N 53°48' E 009°22'714.1
2019-Sep-13 01:30N 53°53' E 009°13'5 9.3
2019-Sep-13 01:00N 53°52' E 009°05'510.7
2019-Sep-13 00:30N 53°51' E 008°57'612.4
2019-Sep-13 00:01N 53°51' E 008°46'5 9.8
2019-Sep-12 23:30N 53°55' E 008°41'612.3
2019-Sep-12 23:00N 53°58' E 008°33'714.0
2019-Sep-12 22:31N 53°59' E 008°21'612.7
2019-Sep-12 22:01N 53°60' E 008°10'510.1
2019-Sep-12 21:31N 54°00' E 008°01'5 9.9
2019-Sep-12 21:01N 54°03' E 007°54'6 9.5
2019-Sep-12 20:22N 54°06' E 007°45'14910.7
2019-Sep-12 06:23N 53°25' E 003°42'612.7
2019-Sep-12 05:56N 53°20' E 003°38'811.2
2019-Sep-12 05:14N 53°13' E 003°32'510.9
2019-Sep-12 04:46N 53°08' E 003°29'310.8
2019-Sep-12 04:30N 53°05' E 003°27'510.6
2019-Sep-12 04:00N 53°00' E 003°24'510.8
2019-Sep-12 03:30N 52°55' E 003°21'510.9
2019-Sep-12 03:00N 52°50' E 003°17'611.1
2019-Sep-12 02:30N 52°45' E 003°13'611.3
2019-Sep-12 02:00N 52°41' E 003°08'911.3
2019-Sep-12 01:14N 52°33' E 003°02'311.3
2019-Sep-12 00:57N 52°30' E 002°59'612.2
2019-Sep-12 00:30N 52°25' E 002°55'612.6
2019-Sep-12 00:00N 52°19' E 002°50'  

Dump ship's entire track history